Terminal Aerodrome Forecast
Issued by NWS

Home | Current Version | Previous Version | Text Only | Print | Product List | Glossary On
Versions: 1 2 3 4 5 6 7 8 9 10 11 12 13
000
FTUS43 KOAX 272332
TAFBFF
TAF
KBFF 272332Z 2800/2824 31015G25KT P6SM BKN200
     FM280100 33011KT P6SM SCT250
     FM280300 VRB04KT P6SM SKC
     FM281800 28017G25KT P6SM BKN250=

USA.gov is the U.S. government's official web portal to all federal, state and local government web resources and services.